Time;durP1;ratioP1;P1;durP2;ratioP2;P2;SDS_P1;SDS_P2;PMS_P1;PMS_P2;Temp;Humidity;BMP_temperature;BMP_pressure;BME280_temperature;BME280_humidity;BME280_pressure;Samples;Min_cycle;Max_cycle;Signal;HPM_P1;HPM_P2
2022/08/06 00:00:00;;;;;;;1.43;0.90;;;16.30;99.90;;;;;;5023677;28;20564;-64
2022/08/06 00:02:29;;;;;;;2.83;0.97;;;16.20;99.90;;;;;;5018935;28;20996;-64
2022/08/06 00:04:56;;;;;;;1.17;0.90;;;16.20;99.90;;;;;;5017807;28;20242;-64
2022/08/06 00:07:22;;;;;;;1.70;0.90;;;16.20;99.90;;;;;;5038405;28;20249;-64
2022/08/06 00:09:47;;;;;;;2.83;1.10;;;16.10;99.90;;;;;;5031445;28;20196;-64
2022/08/06 00:12:13;;;;;;;1.27;0.83;;;16.10;99.90;;;;;;5035794;28;20250;-63
2022/08/06 00:14:38;;;;;;;1.87;0.97;;;16.00;99.90;;;;;;5033099;28;20630;-64
2022/08/06 00:17:04;;;;;;;1.10;1.10;;;16.00;99.90;;;;;;5031837;28;20191;-65
2022/08/06 00:19:30;;;;;;;1.47;0.90;;;15.90;99.90;;;;;;5013699;28;20757;-64
2022/08/06 00:21:55;;;;;;;0.63;0.63;;;15.90;99.90;;;;;;5025361;28;20227;-64
2022/08/06 00:24:21;;;;;;;1.80;0.80;;;15.90;99.90;;;;;;5028513;28;20613;-65
2022/08/06 00:26:47;;;;;;;1.53;0.80;;;15.80;99.90;;;;;;5034605;28;20197;-62
2022/08/06 00:29:13;;;;;;;2.73;1.07;;;15.80;99.90;;;;;;5017808;28;20684;-66
2022/08/06 00:31:39;;;;;;;0.80;0.80;;;15.80;99.90;;;;;;5014161;28;20962;-65
2022/08/06 00:34:05;;;;;;;1.07;0.90;;;15.80;99.90;;;;;;5032303;28;20605;-65
2022/08/06 00:36:32;;;;;;;2.87;1.17;;;15.80;99.90;;;;;;5028929;28;20282;-62
2022/08/06 00:38:59;;;;;;;1.80;1.10;;;15.80;99.90;;;;;;5025912;28;20200;-61
2022/08/06 00:41:26;;;;;;;0.87;0.83;;;15.80;99.90;;;;;;5018748;28;20205;-61
2022/08/06 00:43:51;;;;;;;0.80;0.80;;;15.70;99.90;;;;;;5030072;28;20237;-60
2022/08/06 00:46:17;;;;;;;0.87;0.87;;;15.70;99.90;;;;;;5012298;28;20663;-62
2022/08/06 00:48:43;;;;;;;0.70;0.70;;;15.70;99.90;;;;;;5037521;28;20200;-59
2022/08/06 00:51:09;;;;;;;1.20;0.90;;;15.60;99.90;;;;;;5014427;28;20700;-59
2022/08/06 00:53:36;;;;;;;0.93;0.63;;;15.60;99.90;;;;;;5037764;28;20204;-60
2022/08/06 00:56:03;;;;;;;0.50;0.50;;;15.60;99.90;;;;;;5020157;28;20607;-60
2022/08/06 00:58:28;;;;;;;1.53;1.00;;;15.50;99.90;;;;;;5034193;28;20242;-60
2022/08/06 01:00:54;;;;;;;1.70;0.73;;;15.50;99.90;;;;;;5020486;28;20259;-59
2022/08/06 01:03:19;;;;;;;1.27;1.10;;;15.40;99.90;;;;;;5041517;28;20228;-60
2022/08/06 01:05:45;;;;;;;1.10;0.80;;;15.40;99.90;;;;;;5018467;28;20677;-60
2022/08/06 01:08:11;;;;;;;3.40;0.80;;;15.40;99.90;;;;;;5034255;28;20274;-59
2022/08/06 01:10:37;;;;;;;1.53;0.93;;;15.30;99.90;;;;;;5011291;28;20208;-60
2022/08/06 01:13:03;;;;;;;2.17;1.00;;;15.30;99.90;;;;;;5039365;28;20204;-60
2022/08/06 01:15:28;;;;;;;1.03;0.80;;;15.30;99.90;;;;;;5021651;28;20213;-60
2022/08/06 01:18:04;;;;;;;1.83;0.97;;;15.30;99.90;;;;;;5019192;28;20210;-60
2022/08/06 01:20:47;;;;;;;1.03;0.60;;;15.20;99.90;;;;;;5016227;28;20288;-60
2022/08/06 01:23:43;;;;;;;1.80;0.87;;;15.10;99.90;;;;;;5020423;28;20195;-58
2022/08/06 01:26:25;;;;;;;1.33;1.10;;;15.10;99.90;;;;;;5008498;28;20643;-59
2022/08/06 01:29:00;;;;;;;0.73;0.70;;;15.00;99.90;;;;;;5040178;28;20223;-59
2022/08/06 01:31:34;;;;;;;0.90;0.80;;;15.00;99.90;;;;;;5013051;28;20196;-59
2022/08/06 01:34:07;;;;;;;2.73;0.70;;;15.00;99.90;;;;;;5034947;28;20206;-60
2022/08/06 01:37:01;;;;;;;2.60;0.70;;;15.00;99.90;;;;;;5012745;28;20387;-60
2022/08/06 01:39:29;;;;;;;0.70;0.70;;;15.00;99.90;;;;;;5012480;28;20207;-60
2022/08/06 01:41:57;;;;;;;0.97;0.77;;;14.90;99.90;;;;;;5017405;28;20196;-60
2022/08/06 01:44:27;;;;;;;1.70;0.73;;;14.90;99.90;;;;;;5029371;28;20200;-60
2022/08/06 01:47:00;;;;;;;1.30;0.80;;;14.90;99.90;;;;;;5012816;28;20718;-60
2022/08/06 01:49:29;;;;;;;0.73;0.67;;;14.80;99.90;;;;;;5035059;28;20227;-60
2022/08/06 01:51:59;;;;;;;1.43;0.67;;;14.80;99.90;;;;;;5016749;28;20191;-60
2022/08/06 01:54:28;;;;;;;1.13;0.80;;;14.70;99.90;;;;;;5031033;28;20203;-60
2022/08/06 01:56:55;;;;;;;1.80;0.97;;;14.80;99.90;;;;;;5010849;28;20223;-60
2022/08/06 01:59:25;;;;;;;0.70;0.70;;;14.70;99.90;;;;;;5034122;28;20211;-60
2022/08/06 02:01:54;;;;;;;0.70;0.70;;;14.70;99.90;;;;;;5012905;28;20223;-59
2022/08/06 02:04:22;;;;;;;0.60;0.60;;;14.60;99.90;;;;;;5034150;28;20196;-60
2022/08/06 02:06:50;;;;;;;0.67;0.67;;;14.50;99.90;;;;;;5032578;28;20188;-60
2022/08/06 02:09:19;;;;;;;1.37;0.77;;;14.50;99.90;;;;;;5038069;28;20203;-60
2022/08/06 02:11:51;;;;;;;2.20;0.80;;;14.40;99.90;;;;;;5017786;28;20252;-60
2022/08/06 02:14:20;;;;;;;1.80;1.00;;;14.40;99.90;;;;;;5005659;28;20585;-60
2022/08/06 02:16:45;;;;;;;0.93;0.83;;;14.30;99.90;;;;;;5017944;28;20196;-59
2022/08/06 02:19:13;;;;;;;1.93;0.70;;;14.40;99.90;;;;;;5035589;28;20195;-59
2022/08/06 02:21:41;;;;;;;1.80;1.00;;;14.30;99.90;;;;;;5014868;28;20212;-59
2022/08/06 02:24:09;;;;;;;1.50;1.03;;;14.30;99.90;;;;;;5025340;28;20782;-59
2022/08/06 02:26:38;;;;;;;1.30;0.93;;;14.20;99.90;;;;;;5013527;28;20185;-59
2022/08/06 02:29:06;;;;;;;0.80;0.80;;;14.20;99.90;;;;;;5023875;28;20196;-60
2022/08/06 02:31:33;;;;;;;1.33;1.03;;;14.20;99.90;;;;;;5016582;28;20199;-59
2022/08/06 02:33:59;;;;;;;0.87;0.87;;;14.20;99.90;;;;;;5013232;28;20204;-60
2022/08/06 02:36:32;;;;;;;0.80;0.80;;;14.10;99.90;;;;;;5021236;28;20611;-60
2022/08/06 02:39:12;;;;;;;2.50;0.97;;;14.10;99.90;;;;;;5014148;28;20199;-60
2022/08/06 02:42:09;;;;;;;1.00;0.90;;;14.10;99.90;;;;;;5018534;28;20605;-60
2022/08/06 02:44:40;;;;;;;2.30;1.00;;;14.10;99.90;;;;;;5013137;28;20210;-60
2022/08/06 02:47:13;;;;;;;1.87;0.80;;;14.10;99.90;;;;;;5009994;28;20691;-61
2022/08/06 02:49:44;;;;;;;0.93;0.80;;;14.00;99.90;;;;;;5012591;28;20216;-60
2022/08/06 02:52:18;;;;;;;1.90;0.70;;;14.00;99.90;;;;;;5014081;28;20192;-60
2022/08/06 02:54:50;;;;;;;2.50;0.87;;;14.00;99.90;;;;;;5017122;28;20215;-60
2022/08/06 02:57:48;;;;;;;1.03;1.00;;;14.00;99.90;;;;;;5016768;28;20206;-61
2022/08/06 03:00:14;;;;;;;2.13;1.00;;;14.10;99.90;;;;;;5018556;28;20297;-60
2022/08/06 03:02:43;;;;;;;1.60;0.87;;;14.00;99.90;;;;;;5038842;28;20345;-60
2022/08/06 03:05:14;;;;;;;2.07;0.80;;;13.90;99.90;;;;;;5031523;28;20200;-60
2022/08/06 03:07:40;;;;;;;2.43;1.00;;;14.00;99.90;;;;;;5018179;28;20196;-60
2022/08/06 03:10:07;;;;;;;1.33;0.70;;;13.90;99.90;;;;;;5023691;28;20236;-60
2022/08/06 03:12:35;;;;;;;0.73;0.73;;;13.80;99.90;;;;;;5041294;28;20202;-59
2022/08/06 03:15:02;;;;;;;1.20;0.97;;;13.80;99.90;;;;;;5026420;28;20258;-64
2022/08/06 03:17:29;;;;;;;1.17;1.07;;;13.80;99.90;;;;;;5015796;28;20254;-59
2022/08/06 03:19:55;;;;;;;0.93;0.93;;;13.80;99.90;;;;;;5028126;28;20278;-59
2022/08/06 03:22:23;;;;;;;2.83;0.93;;;13.80;99.90;;;;;;5025264;28;20318;-61
2022/08/06 03:24:49;;;;;;;0.77;0.77;;;13.80;99.90;;;;;;5029351;28;20741;-58
2022/08/06 03:27:16;;;;;;;1.50;0.70;;;13.80;99.90;;;;;;5018581;28;20608;-60
2022/08/06 03:29:43;;;;;;;2.37;1.00;;;13.80;99.90;;;;;;5031253;28;20195;-58
2022/08/06 03:32:11;;;;;;;0.83;0.70;;;13.80;99.90;;;;;;5018049;28;20200;-59
2022/08/06 03:34:37;;;;;;;1.80;0.80;;;13.80;99.90;;;;;;5034884;28;20195;-59
2022/08/06 03:37:03;;;;;;;1.00;1.00;;;13.80;99.90;;;;;;5014172;28;20218;-59
2022/08/06 03:39:31;;;;;;;1.53;1.33;;;13.70;99.90;;;;;;5020050;28;20208;-59
2022/08/06 03:41:57;;;;;;;1.27;0.90;;;13.70;99.90;;;;;;5020072;28;20772;-59
2022/08/06 03:44:23;;;;;;;5.93;1.20;;;13.60;99.90;;;;;;5021511;28;20282;-59
2022/08/06 03:46:52;;;;;;;3.10;0.80;;;13.60;99.90;;;;;;5017976;28;20184;-59
2022/08/06 03:49:50;;;;;;;1.03;1.00;;;13.60;99.90;;;;;;5037483;28;20246;-59
2022/08/06 03:52:20;;;;;;;2.67;1.20;;;13.60;99.90;;;;;;5014861;28;20662;-60
2022/08/06 03:54:50;;;;;;;3.33;1.10;;;13.60;99.90;;;;;;5033761;28;20214;-60
2022/08/06 03:57:20;;;;;;;1.43;1.03;;;13.60;99.90;;;;;;5015882;28;20803;-59
2022/08/06 03:59:50;;;;;;;3.20;1.10;;;13.60;99.90;;;;;;5029670;28;20215;-60
2022/08/06 04:02:16;;;;;;;1.77;1.00;;;13.60;99.90;;;;;;5008757;28;20216;-60
2022/08/06 04:04:43;;;;;;;2.67;1.10;;;13.60;99.90;;;;;;5032805;28;20219;-61
2022/08/06 04:07:10;;;;;;;2.57;1.00;;;13.70;99.90;;;;;;5017627;28;20231;-60
2022/08/06 04:09:36;;;;;;;2.83;0.93;;;13.80;99.90;;;;;;5033180;28;20203;-60
2022/08/06 04:12:03;;;;;;;3.17;1.27;;;13.80;99.90;;;;;;5013722;28;20192;-59
2022/08/06 04:14:29;;;;;;;3.87;1.53;;;13.80;99.90;;;;;;5026596;28;20203;-59
2022/08/06 04:16:55;;;;;;;2.07;1.30;;;13.80;99.90;;;;;;5011260;28;20241;-59
2022/08/06 04:19:22;;;;;;;3.23;1.20;;;13.80;99.90;;;;;;5026639;28;20207;-59
2022/08/06 04:21:48;;;;;;;3.20;1.30;;;13.80;99.90;;;;;;5023846;28;20202;-60
2022/08/06 04:24:14;;;;;;;1.23;1.10;;;13.80;99.90;;;;;;5036761;28;20199;-60
2022/08/06 04:26:42;;;;;;;3.67;1.23;;;13.80;99.90;;;;;;5016704;28;20544;-59
2022/08/06 04:29:11;;;;;;;1.20;1.10;;;13.80;99.90;;;;;;5032165;28;20203;-59
2022/08/06 04:31:38;;;;;;;0.97;0.90;;;13.80;99.90;;;;;;5007121;28;20211;-60
2022/08/06 04:34:04;;;;;;;2.53;1.20;;;13.80;99.90;;;;;;5036673;28;20257;-61
2022/08/06 04:36:30;;;;;;;1.60;1.00;;;13.90;99.90;;;;;;5004997;28;20219;-59
2022/08/06 04:38:57;;;;;;;1.30;1.00;;;13.90;99.90;;;;;;5032680;28;20210;-60
2022/08/06 04:41:22;;;;;;;1.33;1.13;;;13.90;99.90;;;;;;5013190;28;20299;-60
2022/08/06 04:43:48;;;;;;;1.90;1.17;;;13.80;99.90;;;;;;5034552;28;20310;-60
2022/08/06 04:46:14;;;;;;;1.00;1.00;;;13.80;99.90;;;;;;5014790;28;20195;-58
2022/08/06 04:48:39;;;;;;;2.27;1.10;;;13.80;99.90;;;;;;5031681;28;20682;-59
2022/08/06 04:51:06;;;;;;;2.30;1.20;;;13.70;99.90;;;;;;5011691;28;20423;-59
2022/08/06 04:53:38;;;;;;;1.53;1.20;;;13.70;99.90;;;;;;5039877;28;20192;-59
2022/08/06 04:56:05;;;;;;;1.57;1.07;;;13.70;99.90;;;;;;5016468;28;20200;-59
2022/08/06 04:58:31;;;;;;;3.43;1.00;;;13.70;99.90;;;;;;5036665;28;20249;-59
2022/08/06 05:00:57;;;;;;;0.87;0.87;;;13.70;99.90;;;;;;5011791;28;20224;-60
2022/08/06 05:03:23;;;;;;;1.10;1.00;;;13.70;99.90;;;;;;5033421;28;20199;-59
2022/08/06 05:06:08;;;;;;;1.60;1.23;;;13.70;99.90;;;;;;5017542;28;20208;-59
2022/08/06 05:08:38;;;;;;;2.80;1.30;;;13.70;99.90;;;;;;5016158;28;20187;-60
2022/08/06 05:11:16;;;;;;;1.33;1.33;;;13.60;99.90;;;;;;5016388;28;20211;-59
2022/08/06 05:13:44;;;;;;;1.60;1.00;;;13.60;99.90;;;;;;5019529;28;20184;-60
2022/08/06 05:16:12;;;;;;;1.83;1.20;;;13.60;99.90;;;;;;5035466;28;20205;-59
2022/08/06 05:18:49;;;;;;;1.13;0.83;;;13.70;99.90;;;;;;4967628;28;20203;-59
2022/08/06 05:21:21;;;;;;;2.00;1.27;;;13.70;99.90;;;;;;5015876;28;22157;-60
2022/08/06 05:23:51;;;;;;;1.97;1.20;;;13.60;99.90;;;;;;5020332;28;20196;-60
2022/08/06 05:26:16;;;;;;;2.87;1.43;;;13.70;99.90;;;;;;5015910;28;20204;-60
2022/08/06 05:28:42;;;;;;;1.47;1.20;;;13.70;99.90;;;;;;5037632;28;20271;-60
2022/08/06 05:31:08;;;;;;;1.50;0.87;;;13.70;99.90;;;;;;5026704;28;20414;-61
2022/08/06 05:33:36;;;;;;;1.67;1.23;;;13.70;99.90;;;;;;5039334;28;20196;-58
2022/08/06 05:36:04;;;;;;;1.97;1.47;;;13.70;99.90;;;;;;5022529;28;20210;-60
2022/08/06 05:38:35;;;;;;;1.20;1.10;;;13.70;99.90;;;;;;5035862;28;20191;-58
2022/08/06 05:41:00;;;;;;;2.83;1.20;;;13.70;99.90;;;;;;5017228;28;20201;-59
2022/08/06 05:43:26;;;;;;;1.23;0.93;;;13.80;99.90;;;;;;5021172;28;20192;-59
2022/08/06 05:45:57;;;;;;;2.53;1.20;;;13.90;99.90;;;;;;5017961;28;20219;-58
2022/08/06 05:48:23;;;;;;;2.10;1.20;;;14.10;99.90;;;;;;5021368;28;20223;-59
2022/08/06 05:51:06;;;;;;;2.07;1.40;;;14.20;99.90;;;;;;5025736;28;20219;-60
2022/08/06 05:53:42;;;;;;;1.40;1.10;;;14.30;99.90;;;;;;5018865;28;20274;-60
2022/08/06 05:56:12;;;;;;;6.30;1.33;;;14.40;99.90;;;;;;5020146;28;20195;-60
2022/08/06 05:58:55;;;;;;;2.50;1.10;;;14.50;99.90;;;;;;5019240;28;21019;-60
2022/08/06 06:01:21;;;;;;;3.30;1.00;;;14.60;99.90;;;;;;5017910;28;20266;-62
2022/08/06 06:03:47;;;;;;;2.27;1.50;;;14.60;99.90;;;;;;5028362;28;20199;-60
2022/08/06 06:06:14;;;;;;;1.50;1.00;;;14.80;99.90;;;;;;5028573;28;20200;-60
2022/08/06 06:08:39;;;;;;;3.90;1.37;;;14.90;99.90;;;;;;5027340;28;20231;-60
2022/08/06 06:11:07;;;;;;;1.30;0.97;;;14.90;99.90;;;;;;5019637;28;20226;-60
2022/08/06 06:13:34;;;;;;;1.90;1.00;;;15.00;99.90;;;;;;5034967;28;20556;-60
2022/08/06 06:16:22;;;;;;;2.70;1.17;;;15.10;99.90;;;;;;5030141;28;20554;-61
2022/08/06 06:19:18;;;;;;;1.37;1.23;;;15.20;99.90;;;;;;4951292;28;20218;-61
2022/08/06 06:21:59;;;;;;;2.40;1.30;;;15.30;99.90;;;;;;5014314;28;20289;-61
2022/08/06 06:24:40;;;;;;;0.97;0.97;;;15.40;99.90;;;;;;5019479;28;20202;-61
2022/08/06 06:27:19;;;;;;;1.80;0.90;;;15.40;99.90;;;;;;5007376;28;20239;-61
2022/08/06 06:29:51;;;;;;;2.57;1.00;;;15.50;99.90;;;;;;5010161;28;20183;-60
2022/08/06 06:32:36;;;;;;;1.93;1.10;;;15.60;99.90;;;;;;5017733;28;20195;-61
2022/08/06 06:35:27;;;;;;;3.90;1.00;;;15.80;99.90;;;;;;5015986;28;20254;-60
2022/08/06 06:38:00;;;;;;;1.30;1.00;;;15.80;99.90;;;;;;5024050;28;20188;-60
2022/08/06 06:40:45;;;;;;;0.70;0.70;;;15.90;99.90;;;;;;5031730;28;20199;-61
2022/08/06 06:43:35;;;;;;;1.10;1.00;;;16.10;99.90;;;;;;5039540;28;20220;-61
2022/08/06 06:46:04;;;;;;;1.60;0.80;;;16.20;99.90;;;;;;5027197;28;20199;-60
2022/08/06 06:48:36;;;;;;;1.37;0.90;;;16.30;99.90;;;;;;5033358;28;20685;-61
2022/08/06 06:51:09;;;;;;;2.13;0.97;;;16.40;99.90;;;;;;5021706;28;20216;-60
2022/08/06 06:53:40;;;;;;;0.83;0.77;;;16.50;99.90;;;;;;5021985;28;20185;-60
2022/08/06 06:56:08;;;;;;;2.97;0.80;;;16.60;99.90;;;;;;5021121;28;20199;-60
2022/08/06 06:58:42;;;;;;;1.37;1.00;;;16.70;99.90;;;;;;5041950;28;20191;-60
2022/08/06 07:01:11;;;;;;;2.07;1.07;;;16.70;99.90;;;;;;5016131;28;20216;-61
2022/08/06 07:03:39;;;;;;;2.43;1.10;;;16.80;99.90;;;;;;5037822;28;20250;-61
2022/08/06 07:06:08;;;;;;;2.47;1.23;;;16.80;99.90;;;;;;5031894;28;20781;-60
2022/08/06 07:08:37;;;;;;;3.33;1.20;;;16.90;99.90;;;;;;5025416;28;20325;-60
2022/08/06 07:11:04;;;;;;;2.70;0.87;;;16.90;99.90;;;;;;5032423;28;20211;-60
2022/08/06 07:13:31;;;;;;;0.70;0.70;;;17.00;99.90;;;;;;5042540;28;20193;-61
2022/08/06 07:15:57;;;;;;;0.93;0.70;;;17.00;99.90;;;;;;5023931;28;20211;-61
2022/08/06 07:18:26;;;;;;;1.03;0.77;;;17.10;99.90;;;;;;4988821;28;20194;-61
2022/08/06 07:20:52;;;;;;;1.33;1.20;;;17.20;99.90;;;;;;5015982;28;20535;-60
2022/08/06 07:23:20;;;;;;;2.00;0.63;;;17.30;99.90;;;;;;5023013;28;20212;-60
2022/08/06 07:25:48;;;;;;;2.47;0.97;;;17.40;99.90;;;;;;5033744;28;20231;-59
2022/08/06 07:28:14;;;;;;;1.60;0.70;;;17.50;99.90;;;;;;5031608;28;20229;-59
2022/08/06 07:30:41;;;;;;;1.53;1.00;;;17.70;99.90;;;;;;5028438;28;20231;-59
2022/08/06 07:33:09;;;;;;;2.83;1.23;;;17.80;99.90;;;;;;5018511;28;20784;-60
2022/08/06 07:35:36;;;;;;;0.80;0.70;;;18.00;99.90;;;;;;5030854;28;20702;-60
2022/08/06 07:38:04;;;;;;;3.77;2.60;;;18.10;99.90;;;;;;5013854;28;20200;-60
2022/08/06 07:40:38;;;;;;;1.43;1.00;;;18.30;99.90;;;;;;5032377;28;20345;-59
2022/08/06 07:43:13;;;;;;;1.30;1.20;;;18.40;99.90;;;;;;5013024;28;20868;-61
2022/08/06 07:45:39;;;;;;;4.80;1.30;;;18.50;99.90;;;;;;5014221;28;20204;-60
2022/08/06 07:48:08;;;;;;;2.33;0.67;;;18.60;99.90;;;;;;5013210;28;20672;-59
2022/08/06 07:50:35;;;;;;;0.90;0.90;;;18.50;99.90;;;;;;5019125;28;20323;-61
2022/08/06 07:53:01;;;;;;;2.90;0.90;;;18.30;99.90;;;;;;5013873;28;20756;-60
2022/08/06 07:55:27;;;;;;;0.80;0.80;;;18.20;99.90;;;;;;5031696;28;20241;-60
2022/08/06 07:57:54;;;;;;;4.57;0.70;;;18.20;99.90;;;;;;5011130;28;20211;-61
2022/08/06 08:00:20;;;;;;;0.80;0.80;;;18.40;99.90;;;;;;5029111;28;20319;-60
2022/08/06 08:06:17;;;;;;;1.30;0.60;;;18.50;99.90;;;;;;5010581;28;20234;-62
2022/08/06 08:08:19;;;;;;;2.87;0.80;;;18.30;99.90;;;;;;5012105;28;20201;-60
2022/08/06 08:10:45;;;;;;;1.80;1.50;;;18.50;99.90;;;;;;5028709;28;20212;-59
2022/08/06 08:13:11;;;;;;;0.97;0.60;;;18.70;99.90;;;;;;5017096;28;20190;-60
2022/08/06 08:15:38;;;;;;;0.80;0.80;;;19.10;99.90;;;;;;5029358;28;20209;-60
2022/08/06 08:18:03;;;;;;;1.57;0.70;;;19.30;99.90;;;;;;5016775;28;20185;-60
2022/08/06 08:20:31;;;;;;;1.50;0.60;;;19.50;99.00;;;;;;5020263;28;20569;-61
2022/08/06 08:22:57;;;;;;;0.67;0.60;;;19.50;98.10;;;;;;5016891;28;20680;-61
2022/08/06 08:25:22;;;;;;;1.20;0.70;;;19.50;97.90;;;;;;5036640;28;20285;-61
2022/08/06 08:27:48;;;;;;;1.27;0.70;;;19.50;97.90;;;;;;5016681;28;20654;-61
2022/08/06 08:30:13;;;;;;;1.50;0.70;;;19.70;97.80;;;;;;5035319;28;20196;-60
2022/08/06 08:32:39;;;;;;;2.20;0.50;;;20.00;97.00;;;;;;5012677;28;20952;-60
2022/08/06 08:35:05;;;;;;;1.93;1.17;;;20.20;97.00;;;;;;5022653;28;20202;-61
2022/08/06 08:37:30;;;;;;;2.50;0.67;;;20.30;95.40;;;;;;5017164;28;20195;-61
2022/08/06 08:39:56;;;;;;;1.33;1.10;;;20.40;94.80;;;;;;5021714;28;20195;-61
2022/08/06 08:42:39;;;;;;;1.13;0.37;;;20.30;94.30;;;;;;5009499;28;20312;-61
2022/08/06 08:45:06;;;;;;;2.00;0.80;;;20.10;93.30;;;;;;5021049;28;20234;-61
2022/08/06 08:47:34;;;;;;;7.00;2.67;;;19.80;93.60;;;;;;5013674;28;20180;-61
2022/08/06 08:50:01;;;;;;;1.03;0.70;;;19.60;94.00;;;;;;5017630;28;20254;-61
2022/08/06 08:52:34;;;;;;;0.50;0.50;;;19.80;94.40;;;;;;5014679;28;20222;-61
2022/08/06 08:55:05;;;;;;;1.30;0.80;;;20.10;94.80;;;;;;5042926;28;20197;-61
2022/08/06 08:57:32;;;;;;;1.43;0.50;;;20.50;94.80;;;;;;5019900;28;20225;-60
2022/08/06 09:00:00;;;;;;;2.00;0.63;;;21.00;94.20;;;;;;5034528;28;20703;-60
2022/08/06 09:02:26;;;;;;;3.33;1.00;;;21.20;92.60;;;;;;5023169;28;20236;-60
2022/08/06 09:04:53;;;;;;;2.30;1.10;;;21.40;92.00;;;;;;5041358;28;20188;-60
2022/08/06 09:07:20;;;;;;;2.10;0.93;;;21.50;92.10;;;;;;5018441;28;20675;-60
2022/08/06 09:09:46;;;;;;;0.60;0.60;;;21.50;90.20;;;;;;5029317;28;20194;-61
2022/08/06 09:12:11;;;;;;;0.87;0.87;;;21.50;89.70;;;;;;5016636;28;20204;-61
2022/08/06 09:14:37;;;;;;;2.73;1.37;;;21.50;88.10;;;;;;5037718;28;20222;-60
2022/08/06 09:17:05;;;;;;;2.70;0.63;;;21.50;86.20;;;;;;4988935;28;20250;-60
2022/08/06 09:19:32;;;;;;;0.87;0.50;;;21.60;86.20;;;;;;5031008;28;20207;-59
2022/08/06 09:21:58;;;;;;;0.90;0.90;;;21.80;85.40;;;;;;5030851;28;20222;-59
2022/08/06 09:24:24;;;;;;;1.07;1.07;;;21.90;82.70;;;;;;5033435;28;20195;-59
2022/08/06 09:27:11;;;;;;;0.93;0.40;;;21.60;83.00;;;;;;5017317;28;20207;-59
2022/08/06 09:29:50;;;;;;;1.53;0.50;;;21.10;83.90;;;;;;5031379;28;20199;-60
2022/08/06 09:32:36;;;;;;;1.10;0.87;;;20.90;83.90;;;;;;5007752;28;20211;-60
2022/08/06 09:35:03;;;;;;;1.53;0.63;;;20.90;84.70;;;;;;5019074;28;20195;-61
2022/08/06 09:37:29;;;;;;;1.43;1.00;;;21.00;85.10;;;;;;5015119;28;20802;-61
2022/08/06 09:39:55;;;;;;;0.83;0.70;;;21.20;84.00;;;;;;5028624;28;20195;-61
2022/08/06 09:42:40;;;;;;;0.47;0.40;;;21.40;84.10;;;;;;5019480;28;20314;-61
2022/08/06 09:45:13;;;;;;;0.90;0.90;;;21.60;82.90;;;;;;5031459;28;20211;-61
2022/08/06 09:47:39;;;;;;;0.70;0.70;;;21.80;79.10;;;;;;5006538;28;20200;-61
2022/08/06 09:50:06;;;;;;;2.70;1.00;;;21.90;81.80;;;;;;5038327;28;20321;-61
2022/08/06 09:52:31;;;;;;;1.33;0.60;;;22.20;80.00;;;;;;5015976;28;20211;-61
2022/08/06 09:54:57;;;;;;;0.90;0.90;;;22.40;78.50;;;;;;5026891;28;20198;-62
2022/08/06 09:57:24;;;;;;;0.60;0.60;;;22.30;77.70;;;;;;5016280;28;20291;-61
2022/08/06 09:59:50;;;;;;;0.73;0.73;;;22.00;78.30;;;;;;5045270;28;21074;-61
2022/08/06 10:02:20;;;;;;;0.40;0.40;;;21.70;78.80;;;;;;5014657;28;20224;-61
2022/08/06 10:04:47;;;;;;;1.03;0.60;;;21.40;79.30;;;;;;5047006;28;20198;-61
2022/08/06 10:07:12;;;;;;;2.00;0.60;;;21.20;80.40;;;;;;5014738;28;20231;-65
2022/08/06 10:09:56;;;;;;;1.17;0.50;;;21.10;80.80;;;;;;5030203;28;20226;-67
2022/08/06 10:12:23;;;;;;;2.57;0.80;;;21.20;80.70;;;;;;5030666;28;20213;-65
2022/08/06 10:14:49;;;;;;;0.38;0.38;;;21.60;82.10;;;;;;5040985;28;20206;-65
2022/08/06 10:17:17;;;;;;;0.50;0.45;;;21.90;80.00;;;;;;4966465;28;20195;-65
2022/08/06 10:19:45;;;;;;;0.50;0.50;;;22.10;76.70;;;;;;5034396;28;20274;-64
2022/08/06 10:22:12;;;;;;;0.60;0.60;;;22.00;74.40;;;;;;5025396;28;20723;-65
2022/08/06 10:24:50;;;;;;;1.27;0.60;;;21.80;75.80;;;;;;5036309;28;20200;-65
2022/08/06 10:27:34;;;;;;;0.47;0.47;;;21.60;79.60;;;;;;5036783;28;20196;-65
2022/08/06 10:30:07;;;;;;;0.73;0.60;;;21.90;78.60;;;;;;5030659;28;20689;-66
2022/08/06 10:33:05;;;;;;;0.50;0.50;;;22.30;77.40;;;;;;5016921;28;20245;-65
2022/08/06 10:35:31;;;;;;;2.53;0.70;;;22.70;73.60;;;;;;5030908;28;20665;-63
2022/08/06 10:38:03;;;;;;;1.27;0.83;;;22.90;73.40;;;;;;5034497;28;20283;-65
2022/08/06 10:40:30;;;;;;;0.98;0.40;;;23.10;73.20;;;;;;5033543;28;20281;-62
2022/08/06 10:42:56;;;;;;;0.68;0.55;;;23.30;73.20;;;;;;5030051;28;20248;-64
2022/08/06 10:45:22;;;;;;;0.73;0.60;;;23.50;72.60;;;;;;5039579;28;20282;-67
2022/08/06 10:47:48;;;;;;;0.77;0.50;;;23.60;70.70;;;;;;5011438;28;20196;-70
2022/08/06 10:50:14;;;;;;;0.60;0.60;;;23.50;69.10;;;;;;5027969;28;20216;-70
2022/08/06 10:52:41;;;;;;;0.93;0.50;;;23.50;68.20;;;;;;5016774;28;20439;-64
2022/08/06 10:55:08;;;;;;;0.60;0.60;;;23.50;68.70;;;;;;5036858;28;20300;-64
2022/08/06 10:57:35;;;;;;;0.85;0.40;;;23.70;70.00;;;;;;5019930;28;20208;-64
2022/08/06 11:00:02;;;;;;;1.85;0.60;;;23.90;70.30;;;;;;5035218;28;20255;-64
2022/08/06 11:02:58;;;;;;;1.30;0.68;;;24.10;71.20;;;;;;5017458;28;20283;-66
2022/08/06 11:05:27;;;;;;;0.70;0.40;;;24.40;70.10;;;;;;5037503;28;20193;-64
2022/08/06 11:08:07;;;;;;;1.30;0.60;;;24.50;73.10;;;;;;5010860;28;20669;-64
2022/08/06 11:10:53;;;;;;;0.45;0.45;;;24.40;72.40;;;;;;5022598;28;20295;-63
2022/08/06 11:13:35;;;;;;;0.50;0.50;;;24.30;73.80;;;;;;5010650;28;20271;-64
2022/08/06 11:16:01;;;;;;;0.50;0.45;;;24.00;69.60;;;;;;5020163;28;20195;-64
2022/08/06 11:18:27;;;;;;;1.15;0.65;;;23.60;72.10;;;;;;4984210;28;20746;-64
2022/08/06 11:20:52;;;;;;;1.02;0.60;;;23.30;69.00;;;;;;5033405;28;20193;-64
2022/08/06 11:23:18;;;;;;;0.60;0.60;;;23.00;73.40;;;;;;5016823;28;20208;-64
2022/08/06 11:25:50;;;;;;;1.55;0.95;;;23.20;70.50;;;;;;5032545;28;20202;-64
2022/08/06 11:28:56;;;;;;;1.30;0.70;;;23.50;69.80;;;;;;5034206;28;20605;-64
2022/08/06 11:31:32;;;;;;;0.50;0.50;;;23.90;65.00;;;;;;5033012;28;20215;-64
2022/08/06 11:34:00;;;;;;;1.17;0.70;;;24.30;64.60;;;;;;5035624;28;20714;-65
2022/08/06 11:36:27;;;;;;;1.38;0.65;;;24.40;64.80;;;;;;5035312;28;20827;-64
2022/08/06 11:38:52;;;;;;;0.93;0.30;;;24.90;68.90;;;;;;5028468;28;20215;-64
2022/08/06 11:41:24;;;;;;;1.15;0.65;;;25.30;59.70;;;;;;5030765;28;20618;-64
2022/08/06 11:43:53;;;;;;;1.65;0.70;;;25.60;59.90;;;;;;5033632;28;20179;-65
2022/08/06 11:46:19;;;;;;;1.85;0.40;;;25.90;57.90;;;;;;5031041;28;20203;-65
2022/08/06 11:49:00;;;;;;;0.60;0.60;;;25.90;56.50;;;;;;5035468;28;20623;-64
2022/08/06 11:51:57;;;;;;;0.88;0.45;;;25.80;56.50;;;;;;5036037;28;20205;-64
2022/08/06 11:54:26;;;;;;;0.43;0.43;;;26.20;55.30;;;;;;5035082;28;20603;-64
2022/08/06 11:59:27;;;;;;;0.43;0.43;;;26.00;54.30;;;;;;5033557;28;20718;-64
2022/08/06 12:01:53;;;;;;;0.68;0.43;;;25.70;54.80;;;;;;5033067;28;20239;-64
2022/08/06 12:04:39;;;;;;;0.95;0.52;;;25.70;58.00;;;;;;5033258;28;20603;-65
2022/08/06 12:07:18;;;;;;;1.63;0.57;;;25.60;55.00;;;;;;5032451;28;20194;-65
2022/08/06 12:09:46;;;;;;;1.40;1.05;;;26.20;54.50;;;;;;5035992;28;20624;-65
2022/08/06 12:12:23;;;;;;;1.40;0.50;;;27.30;54.20;;;;;;5030741;28;20240;-65
2022/08/06 12:14:49;;;;;;;1.00;0.40;;;28.20;53.00;;;;;;5032245;28;20199;-65
2022/08/06 12:17:14;;;;;;;0.60;0.60;;;28.00;51.10;;;;;;5031351;28;20229;-65
2022/08/06 12:19:46;;;;;;;0.43;0.40;;;27.90;52.20;;;;;;5037607;28;20201;-64
2022/08/06 12:22:16;;;;;;;0.40;0.40;;;28.30;49.80;;;;;;5031955;28;20531;-67
2022/08/06 12:24:46;;;;;;;0.57;0.35;;;28.70;49.90;;;;;;5031873;28;20301;-70
2022/08/06 12:27:12;;;;;;;0.75;0.65;;;29.60;48.40;;;;;;5027363;28;20206;-65
2022/08/06 12:29:39;;;;;;;0.77;0.35;;;30.50;46.30;;;;;;5034262;28;20193;-65
2022/08/06 12:32:25;;;;;;;0.45;0.45;;;31.10;42.70;;;;;;5033321;28;20218;-65
2022/08/06 12:34:52;;;;;;;1.25;0.50;;;31.50;42.30;;;;;;5024776;28;20540;-68
2022/08/06 12:37:18;;;;;;;2.05;0.50;;;31.70;41.10;;;;;;5022807;28;20566;-66
2022/08/06 12:42:31;;;;;;;0.35;0.35;;;32.30;39.20;;;;;;5028966;28;20218;-64
2022/08/06 12:44:57;;;;;;;0.60;0.60;;;31.90;37.80;;;;;;5032107;28;20188;-64
2022/08/06 12:47:25;;;;;;;1.23;0.60;;;31.30;38.00;;;;;;5023135;28;20211;-64
2022/08/06 12:49:52;;;;;;;0.73;0.40;;;30.80;38.50;;;;;;5033475;28;20329;-63
2022/08/06 12:52:20;;;;;;;0.52;0.52;;;31.60;39.10;;;;;;5021515;28;20208;-64
2022/08/06 12:54:46;;;;;;;1.80;0.60;;;32.20;36.30;;;;;;5029340;28;20215;-64
2022/08/06 12:57:27;;;;;;;0.43;0.40;;;32.60;36.00;;;;;;5024949;28;20299;-64
2022/08/06 12:59:54;;;;;;;0.60;0.52;;;32.90;35.20;;;;;;5038320;28;20416;-64
2022/08/06 13:02:22;;;;;;;0.50;0.50;;;33.90;35.60;;;;;;5028119;28;20227;-64
2022/08/06 13:04:50;;;;;;;0.43;0.43;;;34.30;33.60;;;;;;5029235;28;20199;-64
2022/08/06 13:07:17;;;;;;;0.47;0.30;;;33.90;33.80;;;;;;5027053;28;20204;-64
2022/08/06 13:09:45;;;;;;;0.77;0.77;;;33.90;33.60;;;;;;5038195;28;20215;-64